createdAt,value
2019-02-20T00:02:19.374Z,28.50
2019-02-20T00:04:51.265Z,28.50
2019-02-20T00:07:25.799Z,28.30
2019-02-20T00:09:57.954Z,28.30
2019-02-20T00:12:29.923Z,28.60
2019-02-20T00:15:02.004Z,28.70
2019-02-20T00:17:34.744Z,28.70
2019-02-20T00:20:07.178Z,28.30
2019-02-20T00:22:40.427Z,28.00
2019-02-20T00:25:13.024Z,28.20
2019-02-20T00:27:45.401Z,28.40
2019-02-20T00:30:17.857Z,28.20
2019-02-20T00:32:49.708Z,28.30
2019-02-20T00:35:21.525Z,28.50
2019-02-20T00:37:53.299Z,28.60
2019-02-20T00:40:25.157Z,28.50
2019-02-20T00:42:57.042Z,28.20
2019-02-20T00:45:42.313Z,28.00
2019-02-20T00:48:38.679Z,28.10
2019-02-20T00:51:38.516Z,27.80
2019-02-20T00:54:10.287Z,27.70
2019-02-20T00:56:42.332Z,27.70
2019-02-20T00:59:14.137Z,27.90
2019-02-20T01:01:46.181Z,27.80
2019-02-20T01:04:17.983Z,28.10
2019-02-20T01:06:49.864Z,28.30
2019-02-20T01:09:21.753Z,28.50
2019-02-20T01:11:53.800Z,28.60
2019-02-20T01:14:25.554Z,27.90
2019-02-20T01:16:57.625Z,28.20
2019-02-20T01:19:29.417Z,28.50
2019-02-20T01:22:01.350Z,28.50
2019-02-20T01:24:33.163Z,28.70
2019-02-20T01:27:04.974Z,28.30
2019-02-20T01:29:36.999Z,28.40
2019-02-20T01:32:08.793Z,28.40
2019-02-20T01:34:41.571Z,28.60
2019-02-20T01:37:13.371Z,28.70
2019-02-20T01:39:45.128Z,28.50
2019-02-20T01:42:16.994Z,28.70
2019-02-20T01:44:50.331Z,28.40
2019-02-20T01:47:22.540Z,28.10
2019-02-20T01:49:54.423Z,28.40
2019-02-20T01:52:26.518Z,28.20
2019-02-20T01:54:58.325Z,28.20
2019-02-20T01:57:30.125Z,27.80
2019-02-20T02:00:02.127Z,28.10
2019-02-20T02:02:34.510Z,28.00
2019-02-20T02:05:14.743Z,27.50
2019-02-20T02:07:41.003Z,28.10
2019-02-20T02:10:12.882Z,28.00
2019-02-20T02:12:45.234Z,27.80
2019-02-20T02:15:20.506Z,27.90
2019-02-20T02:17:51.222Z,27.30
2019-02-20T02:20:23.009Z,27.60
2019-02-20T02:22:55.032Z,27.40
2019-02-20T02:25:26.831Z,27.40
2019-02-20T02:27:58.857Z,27.30
2019-02-20T02:30:30.873Z,27.50
2019-02-20T02:33:02.784Z,27.70
2019-02-20T02:35:34.563Z,27.80
2019-02-20T02:38:06.600Z,27.80
2019-02-20T02:40:38.368Z,27.70
2019-02-20T02:43:10.159Z,27.60
2019-02-20T02:45:41.995Z,27.60
2019-02-20T02:48:13.958Z,27.70
2019-02-20T02:50:45.738Z,27.50
2019-02-20T02:53:17.592Z,27.80
2019-02-20T02:55:49.380Z,27.80
2019-02-20T02:58:21.164Z,28.20
2019-02-20T03:00:54.311Z,28.10
2019-02-20T03:03:27.985Z,28.20
2019-02-20T03:05:59.748Z,27.60
2019-02-20T03:08:31.730Z,27.80
2019-02-20T03:11:03.500Z,27.50
2019-02-20T03:13:35.494Z,27.80
2019-02-20T03:16:07.605Z,28.00
2019-02-20T03:18:39.527Z,27.80
2019-02-20T03:21:11.327Z,27.70
2019-02-20T03:23:43.288Z,27.20
2019-02-20T03:26:15.125Z,27.00
2019-02-20T03:28:47.120Z,27.20
2019-02-20T03:31:19.353Z,27.50
2019-02-20T03:34:11.679Z,27.60
2019-02-20T03:36:43.596Z,27.50
2019-02-20T03:39:15.564Z,27.10
2019-02-20T03:41:48.959Z,27.20
2019-02-20T03:44:21.119Z,27.30
2019-02-20T03:46:53.270Z,27.40
2019-02-20T03:49:25.063Z,27.60
2019-02-20T03:51:56.864Z,27.90
2019-02-20T03:54:28.633Z,27.60
2019-02-20T03:57:00.568Z,27.70
2019-02-20T03:59:32.654Z,27.40
2019-02-20T04:02:04.596Z,27.50
2019-02-20T04:04:36.394Z,27.40
2019-02-20T04:07:08.379Z,28.00
2019-02-20T04:09:40.182Z,27.80
2019-02-20T04:12:12.045Z,27.80
2019-02-20T04:14:43.857Z,28.00
2019-02-20T04:17:15.900Z,27.70
2019-02-20T04:19:47.996Z,27.70
2019-02-20T04:22:19.803Z,28.00
2019-02-20T04:24:51.705Z,28.20
2019-02-20T04:27:23.540Z,28.40
2019-02-20T04:29:55.713Z,27.90
2019-02-20T04:32:27.726Z,27.60
2019-02-20T04:35:00.440Z,27.80
2019-02-20T04:37:32.278Z,28.20
2019-02-20T04:40:04.383Z,28.10
2019-02-20T04:42:36.125Z,28.00
2019-02-20T04:45:08.553Z,27.90
2019-02-20T04:47:40.787Z,27.80
2019-02-20T04:50:12.694Z,28.00
2019-02-20T04:52:44.440Z,27.80
2019-02-20T04:55:16.219Z,27.80
2019-02-20T04:57:48.006Z,27.90
2019-02-20T05:00:20.127Z,27.70
2019-02-20T05:02:52.190Z,27.60
2019-02-20T05:05:24.135Z,27.90
2019-02-20T05:07:56.085Z,28.10
2019-02-20T05:10:27.896Z,28.00
2019-02-20T05:12:59.665Z,27.50
2019-02-20T05:15:31.566Z,27.80
2019-02-20T16:55:25.085Z,7.80
2019-02-20T16:57:57.274Z,9.50
2019-02-20T17:00:29.574Z,14.30
2019-02-20T17:03:01.451Z,18.50
2019-02-20T17:05:33.394Z,21.20
2019-02-20T17:08:05.644Z,23.00
2019-02-20T17:10:37.458Z,24.40
2019-02-20T17:13:09.408Z,25.30
2019-02-20T17:15:41.376Z,26.10
2019-02-20T17:18:13.255Z,26.10
2019-02-20T17:20:45.162Z,26.80
2019-02-20T17:23:17.050Z,27.40
2019-02-20T17:25:48.963Z,27.70
2019-02-20T17:28:20.803Z,28.00
2019-02-20T17:30:53.125Z,27.90
2019-02-20T17:33:24.947Z,27.90
2019-02-20T17:35:56.906Z,28.20
2019-02-20T17:38:28.767Z,28.30
2019-02-20T17:41:00.723Z,28.00
2019-02-20T17:43:32.724Z,28.00
2019-02-20T17:46:04.857Z,27.70
2019-02-20T17:48:37.054Z,27.40
2019-02-20T17:51:09.094Z,27.90
2019-02-20T17:53:40.886Z,27.90
2019-02-20T17:56:13.038Z,28.00
2019-02-20T17:58:46.013Z,28.40
2019-02-20T18:01:19.132Z,28.50
2019-02-20T18:03:51.126Z,28.20
2019-02-20T18:06:22.924Z,28.10
2019-02-20T18:08:54.773Z,28.50
2019-02-20T18:11:26.716Z,28.50
2019-02-20T18:13:58.560Z,28.70
2019-02-20T18:16:30.686Z,28.90
2019-02-20T18:19:02.500Z,29.10
2019-02-20T18:21:34.400Z,28.90
2019-02-20T18:24:07.484Z,28.70
2019-02-20T18:26:39.262Z,28.70
2019-02-20T18:29:11.098Z,28.90
2019-02-20T18:31:43.184Z,28.90
2019-02-20T18:34:15.064Z,28.80
2019-02-20T18:36:46.862Z,28.20
2019-02-20T18:39:18.700Z,28.00
2019-02-20T18:41:50.496Z,28.50
2019-02-20T18:44:22.461Z,28.60
2019-02-20T18:46:56.582Z,28.30
2019-02-20T18:49:28.106Z,28.50
2019-02-20T18:51:59.984Z,28.40
2019-02-20T18:54:31.964Z,28.30
2019-02-20T18:57:04.080Z,28.40
2019-02-20T18:59:36.605Z,28.70
2019-02-20T19:02:09.507Z,28.60
2019-02-20T19:04:42.263Z,28.80
2019-02-20T19:07:15.839Z,28.50
2019-02-20T19:09:51.018Z,28.70
2019-02-20T19:13:40.843Z,28.90
2019-02-20T19:17:17.210Z,29.00
2019-02-20T19:20:51.185Z,28.70
2019-02-20T19:24:22.581Z,28.60
2019-02-20T19:27:09.723Z,28.00
2019-02-20T19:30:25.813Z,28.10
2019-02-20T19:33:58.052Z,28.20
2019-02-20T19:37:05.309Z,28.50
2019-02-20T19:40:08.971Z,28.60
2019-02-20T19:43:48.821Z,28.30
2019-02-20T19:47:22.998Z,28.20
2019-02-20T19:50:37.532Z,28.10
2019-02-20T19:54:06.308Z,28.50
2019-02-20T19:57:27.875Z,28.50
2019-02-20T20:00:55.333Z,28.20
2019-02-20T20:04:07.172Z,28.60
2019-02-20T20:07:27.105Z,28.70
2019-02-20T20:10:21.050Z,28.80
2019-02-20T20:13:52.639Z,28.80
2019-02-20T20:17:10.172Z,29.00
2019-02-20T20:20:50.429Z,29.00
2019-02-20T20:24:23.889Z,29.00
2019-02-20T20:27:44.822Z,29.00
2019-02-20T20:31:13.709Z,29.30
2019-02-20T20:34:50.002Z,29.40
2019-02-20T20:38:13.933Z,29.50
2019-02-20T20:41:55.889Z,29.60
2019-02-20T20:45:33.606Z,29.60
2019-02-20T20:48:58.064Z,29.50
2019-02-20T20:52:16.132Z,29.50
2019-02-20T20:55:54.764Z,29.40
2019-02-20T20:59:18.222Z,29.50
2019-02-20T21:02:11.794Z,29.50
2019-02-20T21:05:41.514Z,29.40
2019-02-20T21:08:41.735Z,29.40
2019-02-20T21:12:18.799Z,29.60
2019-02-20T21:15:32.653Z,29.70
2019-02-20T21:19:21.870Z,29.60
2019-02-20T21:22:47.446Z,29.50
2019-02-20T21:26:14.363Z,29.50
2019-02-20T21:29:55.853Z,29.70
2019-02-20T21:33:41.701Z,29.60
2019-02-20T21:36:39.808Z,29.40
2019-02-20T21:39:55.664Z,29.60
2019-02-20T21:43:24.693Z,29.60
2019-02-20T21:46:48.296Z,29.70
2019-02-20T21:50:09.990Z,29.80
2019-02-20T21:54:02.673Z,29.80
2019-02-20T21:57:48.381Z,29.80
2019-02-20T22:00:40.091Z,29.90
2019-02-20T22:04:15.250Z,29.60
2019-02-20T22:08:00.979Z,29.70
2019-02-20T22:11:39.234Z,29.60
2019-02-20T22:14:59.003Z,29.80
2019-02-20T22:18:24.957Z,29.90
2019-02-20T22:21:51.164Z,29.90
2019-02-20T22:25:06.867Z,29.90
2019-02-20T22:28:51.322Z,29.60
2019-02-20T22:31:51.299Z,29.60
2019-02-20T22:35:05.918Z,29.60
2019-02-20T22:38:29.353Z,29.50
2019-02-20T22:41:51.101Z,29.40
2019-02-20T22:45:20.399Z,29.00
2019-02-20T22:48:39.842Z,29.20
2019-02-20T22:52:23.332Z,29.40
2019-02-20T22:55:59.291Z,29.50
2019-02-20T22:59:18.009Z,29.50
2019-02-20T23:02:51.511Z,29.20
2019-02-20T23:06:25.893Z,29.10
2019-02-20T23:09:59.876Z,29.30
2019-02-20T23:13:30.164Z,29.30
2019-02-20T23:16:01.940Z,29.10
2019-02-20T23:18:33.784Z,29.20
2019-02-20T23:21:05.608Z,29.10
2019-02-20T23:23:37.350Z,29.00
2019-02-20T23:26:09.370Z,28.90
2019-02-20T23:28:41.177Z,28.90
2019-02-20T23:31:12.995Z,28.90
2019-02-20T23:33:44.792Z,29.00
2019-02-20T23:36:16.608Z,29.00
2019-02-20T23:38:48.392Z,29.00
2019-02-20T23:41:20.164Z,29.00
2019-02-20T23:43:51.919Z,29.10
2019-02-20T23:46:23.684Z,29.20
2019-02-20T23:48:55.509Z,29.20
2019-02-20T23:51:27.302Z,29.20
2019-02-20T23:53:59.144Z,29.20
2019-02-20T23:56:32.081Z,29.30
2019-02-20T23:59:03.946Z,29.40
